sensor_id;sensor_type;location;lat;lon;timestamp;temperature;humidity
939;DHT22;456;53.584;9.968;2024-03-08T00:00:58;17.20;18.20
939;DHT22;456;53.584;9.968;2024-03-08T00:03:24;17.20;18.40
939;DHT22;456;53.584;9.968;2024-03-08T00:05:49;17.20;18.50
939;DHT22;456;53.584;9.968;2024-03-08T00:08:15;17.20;18.50
939;DHT22;456;53.584;9.968;2024-03-08T00:10:41;17.30;18.70
939;DHT22;456;53.584;9.968;2024-03-08T00:13:06;17.30;18.60
939;DHT22;456;53.584;9.968;2024-03-08T00:15:32;17.30;18.60
939;DHT22;456;53.584;9.968;2024-03-08T00:17:57;17.30;18.60
939;DHT22;456;53.584;9.968;2024-03-08T00:20:23;17.30;18.60
939;DHT22;456;53.584;9.968;2024-03-08T00:22:49;17.30;18.60
939;DHT22;456;53.584;9.968;2024-03-08T00:25:14;17.30;18.60
939;DHT22;456;53.584;9.968;2024-03-08T00:27:40;17.30;18.50
939;DHT22;456;53.584;9.968;2024-03-08T00:30:09;17.30;18.50
939;DHT22;456;53.584;9.968;2024-03-08T00:32:34;17.30;18.50
939;DHT22;456;53.584;9.968;2024-03-08T00:35:01;17.30;18.50
939;DHT22;456;53.584;9.968;2024-03-08T00:37:27;17.30;18.50
939;DHT22;456;53.584;9.968;2024-03-08T00:39:52;17.30;18.60
939;DHT22;456;53.584;9.968;2024-03-08T00:42:18;17.20;18.60
939;DHT22;456;53.584;9.968;2024-03-08T00:44:44;17.30;18.70
939;DHT22;456;53.584;9.968;2024-03-08T00:47:10;17.30;18.70
939;DHT22;456;53.584;9.968;2024-03-08T00:49:37;17.30;18.60
939;DHT22;456;53.584;9.968;2024-03-08T00:52:07;17.30;18.50
939;DHT22;456;53.584;9.968;2024-03-08T00:54:33;17.30;18.50
939;DHT22;456;53.584;9.968;2024-03-08T00:56:59;17.30;18.50
939;DHT22;456;53.584;9.968;2024-03-08T00:59:28;17.30;18.40
939;DHT22;456;53.584;9.968;2024-03-08T01:01:53;17.30;18.50
939;DHT22;456;53.584;9.968;2024-03-08T01:04:20;17.30;18.40
939;DHT22;456;53.584;9.968;2024-03-08T01:06:46;17.30;18.40
939;DHT22;456;53.584;9.968;2024-03-08T01:09:13;17.30;18.40
939;DHT22;456;53.584;9.968;2024-03-08T01:11:38;17.30;18.40
939;DHT22;456;53.584;9.968;2024-03-08T01:14:04;17.30;18.30
939;DHT22;456;53.584;9.968;2024-03-08T01:16:29;17.30;18.50
939;DHT22;456;53.584;9.968;2024-03-08T01:18:55;17.30;18.50
939;DHT22;456;53.584;9.968;2024-03-08T01:21:20;17.30;18.40
939;DHT22;456;53.584;9.968;2024-03-08T01:23:47;17.40;18.40
939;DHT22;456;53.584;9.968;2024-03-08T01:26:13;17.40;18.30
939;DHT22;456;53.584;9.968;2024-03-08T01:28:40;17.30;18.30
939;DHT22;456;53.584;9.968;2024-03-08T01:31:06;17.40;18.40
939;DHT22;456;53.584;9.968;2024-03-08T01:33:31;17.30;18.20
939;DHT22;456;53.584;9.968;2024-03-08T01:35:57;17.30;18.20
939;DHT22;456;53.584;9.968;2024-03-08T01:38:23;17.30;18.20
939;DHT22;456;53.584;9.968;2024-03-08T01:40:49;17.30;18.20
939;DHT22;456;53.584;9.968;2024-03-08T01:43:21;17.30;18.10
939;DHT22;456;53.584;9.968;2024-03-08T01:45:48;17.30;18.10
939;DHT22;456;53.584;9.968;2024-03-08T01:48:17;17.30;18.20
939;DHT22;456;53.584;9.968;2024-03-08T01:50:45;17.30;18.20
939;DHT22;456;53.584;9.968;2024-03-08T01:53:11;17.30;18.20
939;DHT22;456;53.584;9.968;2024-03-08T01:55:38;17.30;18.20
939;DHT22;456;53.584;9.968;2024-03-08T01:58:05;17.40;18.20
939;DHT22;456;53.584;9.968;2024-03-08T02:00:32;17.40;18.20
939;DHT22;456;53.584;9.968;2024-03-08T02:02:59;17.30;18.10
939;DHT22;456;53.584;9.968;2024-03-08T02:05:25;17.30;18.10
939;DHT22;456;53.584;9.968;2024-03-08T02:07:51;17.30;18.00
939;DHT22;456;53.584;9.968;2024-03-08T02:10:17;17.30;18.00
939;DHT22;456;53.584;9.968;2024-03-08T02:12:42;17.30;17.90
939;DHT22;456;53.584;9.968;2024-03-08T02:15:08;17.30;18.10
939;DHT22;456;53.584;9.968;2024-03-08T02:17:34;17.30;18.10
939;DHT22;456;53.584;9.968;2024-03-08T02:20:00;17.30;18.10
939;DHT22;456;53.584;9.968;2024-03-08T02:22:30;17.40;18.00
939;DHT22;456;53.584;9.968;2024-03-08T02:24:56;17.40;18.00
939;DHT22;456;53.584;9.968;2024-03-08T02:27:25;17.40;18.00
939;DHT22;456;53.584;9.968;2024-03-08T02:29:56;17.40;18.00
939;DHT22;456;53.584;9.968;2024-03-08T02:32:22;17.30;17.90
939;DHT22;456;53.584;9.968;2024-03-08T02:34:48;17.30;17.90
939;DHT22;456;53.584;9.968;2024-03-08T02:37:15;17.30;17.90
939;DHT22;456;53.584;9.968;2024-03-08T02:39:40;17.30;17.80
939;DHT22;456;53.584;9.968;2024-03-08T02:42:06;17.30;17.90
939;DHT22;456;53.584;9.968;2024-03-08T02:44:32;17.30;17.90
939;DHT22;456;53.584;9.968;2024-03-08T02:46:59;17.40;17.90
939;DHT22;456;53.584;9.968;2024-03-08T02:49:26;17.40;17.80
939;DHT22;456;53.584;9.968;2024-03-08T02:51:54;17.40;17.80
939;DHT22;456;53.584;9.968;2024-03-08T02:54:20;17.40;17.80
939;DHT22;456;53.584;9.968;2024-03-08T02:56:46;17.30;17.70
939;DHT22;456;53.584;9.968;2024-03-08T02:59:12;17.30;17.70
939;DHT22;456;53.584;9.968;2024-03-08T03:01:38;17.30;17.70
939;DHT22;456;53.584;9.968;2024-03-08T03:04:04;17.30;17.60
939;DHT22;456;53.584;9.968;2024-03-08T03:06:29;17.30;17.70
939;DHT22;456;53.584;9.968;2024-03-08T03:08:55;17.30;17.80
939;DHT22;456;53.584;9.968;2024-03-08T03:11:23;17.30;17.80
939;DHT22;456;53.584;9.968;2024-03-08T03:13:48;17.40;17.70
939;DHT22;456;53.584;9.968;2024-03-08T03:16:21;17.40;17.60
939;DHT22;456;53.584;9.968;2024-03-08T03:18:46;17.40;17.60
939;DHT22;456;53.584;9.968;2024-03-08T03:21:13;17.40;17.70
939;DHT22;456;53.584;9.968;2024-03-08T03:23:41;17.40;17.60
939;DHT22;456;53.584;9.968;2024-03-08T03:26:08;17.30;17.60
939;DHT22;456;53.584;9.968;2024-03-08T03:28:34;17.30;17.50
939;DHT22;456;53.584;9.968;2024-03-08T03:30:59;17.30;17.60
939;DHT22;456;53.584;9.968;2024-03-08T03:33:25;17.30;17.60
939;DHT22;456;53.584;9.968;2024-03-08T03:35:51;17.30;17.50
939;DHT22;456;53.584;9.968;2024-03-08T03:38:20;17.40;17.50
939;DHT22;456;53.584;9.968;2024-03-08T03:40:48;17.40;17.50
939;DHT22;456;53.584;9.968;2024-03-08T03:43:17;17.40;17.40
939;DHT22;456;53.584;9.968;2024-03-08T03:45:43;17.40;17.40
939;DHT22;456;53.584;9.968;2024-03-08T03:48:09;17.30;17.30
939;DHT22;456;53.584;9.968;2024-03-08T03:50:35;17.30;17.30
939;DHT22;456;53.584;9.968;2024-03-08T03:53:01;17.30;17.30
939;DHT22;456;53.584;9.968;2024-03-08T03:55:28;17.40;17.50
939;DHT22;456;53.584;9.968;2024-03-08T03:57:54;17.40;17.40
939;DHT22;456;53.584;9.968;2024-03-08T04:00:20;17.40;17.40
939;DHT22;456;53.584;9.968;2024-03-08T04:02:45;17.40;17.30
939;DHT22;456;53.584;9.968;2024-03-08T04:05:12;17.40;17.30
939;DHT22;456;53.584;9.968;2024-03-08T04:07:38;17.40;17.30
939;DHT22;456;53.584;9.968;2024-03-08T04:10:06;17.40;17.30
939;DHT22;456;53.584;9.968;2024-03-08T04:12:33;17.30;17.30
939;DHT22;456;53.584;9.968;2024-03-08T04:14:58;17.30;17.30
939;DHT22;456;53.584;9.968;2024-03-08T04:17:24;17.40;17.40
939;DHT22;456;53.584;9.968;2024-03-08T04:19:50;17.40;17.30
939;DHT22;456;53.584;9.968;2024-03-08T04:22:16;17.40;17.20
939;DHT22;456;53.584;9.968;2024-03-08T04:24:43;17.40;17.20
939;DHT22;456;53.584;9.968;2024-03-08T04:27:09;17.40;17.20
939;DHT22;456;53.584;9.968;2024-03-08T04:29:34;17.40;17.20
939;DHT22;456;53.584;9.968;2024-03-08T04:32:02;17.40;17.20
939;DHT22;456;53.584;9.968;2024-03-08T04:34:29;17.40;17.20
939;DHT22;456;53.584;9.968;2024-03-08T04:36:56;17.30;17.10
939;DHT22;456;53.584;9.968;2024-03-08T04:39:22;17.40;17.20
939;DHT22;456;53.584;9.968;2024-03-08T04:41:48;17.40;17.20
939;DHT22;456;53.584;9.968;2024-03-08T04:44:14;17.40;17.10
939;DHT22;456;53.584;9.968;2024-03-08T04:46:40;17.40;17.20
939;DHT22;456;53.584;9.968;2024-03-08T04:49:07;17.40;17.10
939;DHT22;456;53.584;9.968;2024-03-08T04:51:33;17.40;17.10
939;DHT22;456;53.584;9.968;2024-03-08T04:53:59;17.40;17.10
939;DHT22;456;53.584;9.968;2024-03-08T04:56:25;17.40;17.20
939;DHT22;456;53.584;9.968;2024-03-08T04:58:51;17.40;16.90
939;DHT22;456;53.584;9.968;2024-03-08T05:01:16;17.50;16.80
939;DHT22;456;53.584;9.968;2024-03-08T05:03:42;17.50;16.70
939;DHT22;456;53.584;9.968;2024-03-08T05:06:07;17.50;16.70
939;DHT22;456;53.584;9.968;2024-03-08T05:08:34;17.60;16.70
939;DHT22;456;53.584;9.968;2024-03-08T05:11:00;17.60;16.50
939;DHT22;456;53.584;9.968;2024-03-08T05:13:32;17.60;16.40
939;DHT22;456;53.584;9.968;2024-03-08T05:15:57;17.60;16.40
939;DHT22;456;53.584;9.968;2024-03-08T05:18:24;17.60;16.40
939;DHT22;456;53.584;9.968;2024-03-08T05:20:50;17.60;16.40
939;DHT22;456;53.584;9.968;2024-03-08T05:23:16;17.60;16.40
939;DHT22;456;53.584;9.968;2024-03-08T05:25:41;17.60;16.40
939;DHT22;456;53.584;9.968;2024-03-08T05:28:07;17.60;16.40
939;DHT22;456;53.584;9.968;2024-03-08T05:30:34;17.70;16.50
939;DHT22;456;53.584;9.968;2024-03-08T05:33:01;17.60;16.40
939;DHT22;456;53.584;9.968;2024-03-08T05:35:27;17.60;17.00
939;DHT22;456;53.584;9.968;2024-03-08T05:37:52;17.60;16.40
939;DHT22;456;53.584;9.968;2024-03-08T05:40:18;17.70;16.50
939;DHT22;456;53.584;9.968;2024-03-08T05:42:44;17.70;16.50
939;DHT22;456;53.584;9.968;2024-03-08T05:45:10;17.60;16.50
939;DHT22;456;53.584;9.968;2024-03-08T05:47:36;17.60;16.60
939;DHT22;456;53.584;9.968;2024-03-08T05:50:02;17.70;16.70
939;DHT22;456;53.584;9.968;2024-03-08T05:52:27;17.60;16.60
939;DHT22;456;53.584;9.968;2024-03-08T05:54:53;17.70;16.70
939;DHT22;456;53.584;9.968;2024-03-08T05:57:19;17.60;16.80
939;DHT22;456;53.584;9.968;2024-03-08T05:59:44;17.60;16.90
939;DHT22;456;53.584;9.968;2024-03-08T06:02:10;17.60;16.90
939;DHT22;456;53.584;9.968;2024-03-08T06:04:35;17.60;17.00
939;DHT22;456;53.584;9.968;2024-03-08T06:07:01;17.60;16.90
939;DHT22;456;53.584;9.968;2024-03-08T06:09:28;17.60;16.90
939;DHT22;456;53.584;9.968;2024-03-08T06:11:54;17.60;16.70
939;DHT22;456;53.584;9.968;2024-03-08T06:14:20;17.70;16.70
939;DHT22;456;53.584;9.968;2024-03-08T06:16:46;17.70;16.70
939;DHT22;456;53.584;9.968;2024-03-08T06:19:12;17.70;16.60
939;DHT22;456;53.584;9.968;2024-03-08T06:21:38;17.70;16.50
939;DHT22;456;53.584;9.968;2024-03-08T06:24:04;17.70;16.50
939;DHT22;456;53.584;9.968;2024-03-08T06:26:30;17.80;16.60
939;DHT22;456;53.584;9.968;2024-03-08T06:28:56;17.70;16.50
939;DHT22;456;53.584;9.968;2024-03-08T06:31:22;17.80;16.60
939;DHT22;456;53.584;9.968;2024-03-08T06:33:47;17.80;16.60
939;DHT22;456;53.584;9.968;2024-03-08T06:36:17;17.80;16.60
939;DHT22;456;53.584;9.968;2024-03-08T06:38:50;17.80;16.70
939;DHT22;456;53.584;9.968;2024-03-08T06:41:16;17.80;16.90
939;DHT22;456;53.584;9.968;2024-03-08T06:43:46;17.80;16.90
939;DHT22;456;53.584;9.968;2024-03-08T06:46:12;17.80;16.80
939;DHT22;456;53.584;9.968;2024-03-08T06:48:38;17.80;16.90
939;DHT22;456;53.584;9.968;2024-03-08T06:51:04;17.80;17.00
939;DHT22;456;53.584;9.968;2024-03-08T06:53:30;17.80;17.00
939;DHT22;456;53.584;9.968;2024-03-08T06:55:57;17.80;17.10
939;DHT22;456;53.584;9.968;2024-03-08T06:58:23;17.70;17.10
939;DHT22;456;53.584;9.968;2024-03-08T07:00:48;17.70;17.10
939;DHT22;456;53.584;9.968;2024-03-08T07:03:17;17.70;17.20
939;DHT22;456;53.584;9.968;2024-03-08T07:05:43;17.70;17.20
939;DHT22;456;53.584;9.968;2024-03-08T07:08:08;17.70;17.30
939;DHT22;456;53.584;9.968;2024-03-08T07:10:34;17.60;17.30
939;DHT22;456;53.584;9.968;2024-03-08T07:13:01;17.70;17.30
939;DHT22;456;53.584;9.968;2024-03-08T07:15:29;17.60;17.30
939;DHT22;456;53.584;9.968;2024-03-08T07:17:55;17.70;17.30
939;DHT22;456;53.584;9.968;2024-03-08T07:20:21;17.60;17.40
939;DHT22;456;53.584;9.968;2024-03-08T07:22:47;17.60;17.30
939;DHT22;456;53.584;9.968;2024-03-08T07:25:13;17.70;17.30
939;DHT22;456;53.584;9.968;2024-03-08T07:27:49;17.60;17.20
939;DHT22;456;53.584;9.968;2024-03-08T07:30:15;17.70;17.20
939;DHT22;456;53.584;9.968;2024-03-08T07:33:00;17.60;17.10
939;DHT22;456;53.584;9.968;2024-03-08T07:35:30;17.70;17.20
939;DHT22;456;53.584;9.968;2024-03-08T07:37:56;17.60;17.10
939;DHT22;456;53.584;9.968;2024-03-08T07:40:23;17.70;17.10
939;DHT22;456;53.584;9.968;2024-03-08T07:42:49;17.70;17.10
939;DHT22;456;53.584;9.968;2024-03-08T07:45:15;17.70;17.10
939;DHT22;456;53.584;9.968;2024-03-08T07:47:41;17.60;17.10
939;DHT22;456;53.584;9.968;2024-03-08T07:50:07;17.70;17.20
939;DHT22;456;53.584;9.968;2024-03-08T07:52:36;17.70;17.10
939;DHT22;456;53.584;9.968;2024-03-08T07:55:02;17.70;17.10
939;DHT22;456;53.584;9.968;2024-03-08T07:57:29;17.70;17.10
939;DHT22;456;53.584;9.968;2024-03-08T07:59:55;17.70;17.10
939;DHT22;456;53.584;9.968;2024-03-08T08:02:21;17.70;17.20
939;DHT22;456;53.584;9.968;2024-03-08T08:04:46;17.70;17.20
939;DHT22;456;53.584;9.968;2024-03-08T08:07:12;17.70;17.30
939;DHT22;456;53.584;9.968;2024-03-08T08:09:37;17.70;17.20
939;DHT22;456;53.584;9.968;2024-03-08T08:12:03;17.70;17.20
939;DHT22;456;53.584;9.968;2024-03-08T08:14:29;17.70;17.20
939;DHT22;456;53.584;9.968;2024-03-08T08:16:55;17.70;17.20
939;DHT22;456;53.584;9.968;2024-03-08T08:19:22;17.70;17.20
939;DHT22;456;53.584;9.968;2024-03-08T08:21:48;17.70;17.30
939;DHT22;456;53.584;9.968;2024-03-08T08:24:14;17.70;17.30
939;DHT22;456;53.584;9.968;2024-03-08T08:26:40;17.70;17.30
939;DHT22;456;53.584;9.968;2024-03-08T08:29:06;17.70;17.30
939;DHT22;456;53.584;9.968;2024-03-08T08:31:32;17.70;17.30
939;DHT22;456;53.584;9.968;2024-03-08T08:33:58;17.70;17.30
939;DHT22;456;53.584;9.968;2024-03-08T08:36:25;17.70;17.30
939;DHT22;456;53.584;9.968;2024-03-08T08:38:50;17.70;17.30
939;DHT22;456;53.584;9.968;2024-03-08T08:41:19;17.70;17.50
939;DHT22;456;53.584;9.968;2024-03-08T08:43:44;17.70;17.30
939;DHT22;456;53.584;9.968;2024-03-08T08:46:10;17.70;17.30
939;DHT22;456;53.584;9.968;2024-03-08T08:48:39;17.70;17.30
939;DHT22;456;53.584;9.968;2024-03-08T08:51:13;17.70;17.30
939;DHT22;456;53.584;9.968;2024-03-08T08:53:41;17.70;17.30
939;DHT22;456;53.584;9.968;2024-03-08T08:56:12;17.70;17.30
939;DHT22;456;53.584;9.968;2024-03-08T08:58:41;17.70;17.40
939;DHT22;456;53.584;9.968;2024-03-08T09:01:08;17.70;17.40
939;DHT22;456;53.584;9.968;2024-03-08T09:03:35;17.70;17.50
939;DHT22;456;53.584;9.968;2024-03-08T09:06:05;17.70;17.40
939;DHT22;456;53.584;9.968;2024-03-08T09:08:31;17.70;17.40
939;DHT22;456;53.584;9.968;2024-03-08T09:10:56;17.70;17.30
939;DHT22;456;53.584;9.968;2024-03-08T09:13:22;17.70;17.40
939;DHT22;456;53.584;9.968;2024-03-08T09:15:48;17.70;17.30
939;DHT22;456;53.584;9.968;2024-03-08T09:18:14;17.70;17.40
939;DHT22;456;53.584;9.968;2024-03-08T09:20:39;17.70;17.50
939;DHT22;456;53.584;9.968;2024-03-08T09:23:06;17.70;17.40
939;DHT22;456;53.584;9.968;2024-03-08T09:25:33;17.70;17.40
939;DHT22;456;53.584;9.968;2024-03-08T09:27:59;17.70;17.40
939;DHT22;456;53.584;9.968;2024-03-08T09:30:25;17.70;17.40
939;DHT22;456;53.584;9.968;2024-03-08T09:32:50;17.70;17.40
939;DHT22;456;53.584;9.968;2024-03-08T09:35:16;17.70;17.50
939;DHT22;456;53.584;9.968;2024-03-08T09:37:42;17.70;17.40
939;DHT22;456;53.584;9.968;2024-03-08T09:40:08;17.70;17.40
939;DHT22;456;53.584;9.968;2024-03-08T09:42:41;17.70;17.40
939;DHT22;456;53.584;9.968;2024-03-08T09:45:11;17.70;17.40
939;DHT22;456;53.584;9.968;2024-03-08T09:47:41;17.70;17.40
939;DHT22;456;53.584;9.968;2024-03-08T09:50:07;17.70;17.40
939;DHT22;456;53.584;9.968;2024-03-08T09:52:38;17.70;17.40
939;DHT22;456;53.584;9.968;2024-03-08T09:55:06;17.70;17.50
939;DHT22;456;53.584;9.968;2024-03-08T09:57:33;17.70;17.50
939;DHT22;456;53.584;9.968;2024-03-08T09:59:59;17.70;17.50
939;DHT22;456;53.584;9.968;2024-03-08T10:02:24;17.70;17.50
939;DHT22;456;53.584;9.968;2024-03-08T10:04:51;17.70;17.50
939;DHT22;456;53.584;9.968;2024-03-08T10:07:18;17.70;17.50
939;DHT22;456;53.584;9.968;2024-03-08T10:09:44;17.70;17.50
939;DHT22;456;53.584;9.968;2024-03-08T10:12:18;17.70;17.50
939;DHT22;456;53.584;9.968;2024-03-08T10:14:45;17.70;17.10
939;DHT22;456;53.584;9.968;2024-03-08T10:17:12;17.70;17.50
939;DHT22;456;53.584;9.968;2024-03-08T10:19:37;17.70;17.50
939;DHT22;456;53.584;9.968;2024-03-08T10:22:04;17.70;17.60
939;DHT22;456;53.584;9.968;2024-03-08T10:24:30;17.70;17.60
939;DHT22;456;53.584;9.968;2024-03-08T10:27:00;17.70;17.60
939;DHT22;456;53.584;9.968;2024-03-08T10:29:27;17.70;17.60
939;DHT22;456;53.584;9.968;2024-03-08T10:31:54;17.70;17.60
939;DHT22;456;53.584;9.968;2024-03-08T10:34:21;17.70;17.60
939;DHT22;456;53.584;9.968;2024-03-08T10:36:50;17.70;17.70
939;DHT22;456;53.584;9.968;2024-03-08T10:39:23;17.70;17.60
939;DHT22;456;53.584;9.968;2024-03-08T10:41:53;17.60;17.60
939;DHT22;456;53.584;9.968;2024-03-08T10:49:40;17.70;18.20
939;DHT22;456;53.584;9.968;2024-03-08T10:52:11;17.70;17.70
939;DHT22;456;53.584;9.968;2024-03-08T10:54:39;17.60;17.60
939;DHT22;456;53.584;9.968;2024-03-08T10:57:07;17.60;16.90
939;DHT22;456;53.584;9.968;2024-03-08T10:59:34;17.50;17.20
939;DHT22;456;53.584;9.968;2024-03-08T11:02:01;17.50;17.40
939;DHT22;456;53.584;9.968;2024-03-08T11:04:26;17.60;17.60
939;DHT22;456;53.584;9.968;2024-03-08T11:07:00;17.60;17.70
939;DHT22;456;53.584;9.968;2024-03-08T11:09:32;17.60;17.50
939;DHT22;456;53.584;9.968;2024-03-08T11:12:26;17.60;17.50
939;DHT22;456;53.584;9.968;2024-03-08T11:14:56;17.60;17.30
939;DHT22;456;53.584;9.968;2024-03-08T11:17:41;17.60;17.40
939;DHT22;456;53.584;9.968;2024-03-08T11:20:10;17.60;17.40
939;DHT22;456;53.584;9.968;2024-03-08T11:23:03;17.60;17.30
939;DHT22;456;53.584;9.968;2024-03-08T11:28:17;17.60;17.20
939;DHT22;456;53.584;9.968;2024-03-08T11:30:47;17.50;17.00
939;DHT22;456;53.584;9.968;2024-03-08T11:33:34;17.50;17.00
939;DHT22;456;53.584;9.968;2024-03-08T11:36:33;17.50;17.00
939;DHT22;456;53.584;9.968;2024-03-08T11:39:01;17.50;17.00
939;DHT22;456;53.584;9.968;2024-03-08T11:41:35;17.50;17.00
939;DHT22;456;53.584;9.968;2024-03-08T11:44:05;17.50;17.00
939;DHT22;456;53.584;9.968;2024-03-08T11:46:30;17.40;16.80
939;DHT22;456;53.584;9.968;2024-03-08T11:48:56;17.40;16.80
939;DHT22;456;53.584;9.968;2024-03-08T11:51:22;17.50;17.10
939;DHT22;456;53.584;9.968;2024-03-08T11:53:49;17.50;17.00
939;DHT22;456;53.584;9.968;2024-03-08T11:56:16;17.50;17.00
939;DHT22;456;53.584;9.968;2024-03-08T11:58:51;17.50;16.80
939;DHT22;456;53.584;9.968;2024-03-08T12:01:17;17.50;16.80
939;DHT22;456;53.584;9.968;2024-03-08T12:03:43;17.50;16.90
939;DHT22;456;53.584;9.968;2024-03-08T12:06:12;17.50;16.80
939;DHT22;456;53.584;9.968;2024-03-08T12:08:39;17.50;16.80
939;DHT22;456;53.584;9.968;2024-03-08T12:11:05;17.50;16.70
939;DHT22;456;53.584;9.968;2024-03-08T12:13:33;17.40;16.90
939;DHT22;456;53.584;9.968;2024-03-08T12:16:02;17.40;16.90
939;DHT22;456;53.584;9.968;2024-03-08T12:18:37;17.50;17.00
939;DHT22;456;53.584;9.968;2024-03-08T12:21:07;17.40;17.00
939;DHT22;456;53.584;9.968;2024-03-08T12:23:34;17.40;17.10
939;DHT22;456;53.584;9.968;2024-03-08T12:26:14;17.40;17.10
939;DHT22;456;53.584;9.968;2024-03-08T12:28:41;17.40;17.60
939;DHT22;456;53.584;9.968;2024-03-08T12:31:09;17.40;17.10
939;DHT22;456;53.584;9.968;2024-03-08T12:33:37;17.40;17.10
939;DHT22;456;53.584;9.968;2024-03-08T12:36:03;17.40;17.20
939;DHT22;456;53.584;9.968;2024-03-08T12:38:32;17.40;17.20
939;DHT22;456;53.584;9.968;2024-03-08T12:40:59;17.40;17.20
939;DHT22;456;53.584;9.968;2024-03-08T12:43:24;17.40;17.20
939;DHT22;456;53.584;9.968;2024-03-08T12:45:50;17.40;17.30
939;DHT22;456;53.584;9.968;2024-03-08T12:48:16;17.40;17.20
939;DHT22;456;53.584;9.968;2024-03-08T12:50:42;17.40;17.40
939;DHT22;456;53.584;9.968;2024-03-08T12:53:13;17.40;17.40
939;DHT22;456;53.584;9.968;2024-03-08T12:55:39;17.40;17.30
939;DHT22;456;53.584;9.968;2024-03-08T12:58:05;17.40;17.30
939;DHT22;456;53.584;9.968;2024-03-08T13:00:33;17.40;17.20
939;DHT22;456;53.584;9.968;2024-03-08T13:03:02;17.40;17.40
939;DHT22;456;53.584;9.968;2024-03-08T13:05:28;17.40;17.30
939;DHT22;456;53.584;9.968;2024-03-08T13:07:54;17.40;17.40
939;DHT22;456;53.584;9.968;2024-03-08T13:10:20;17.40;17.40
939;DHT22;456;53.584;9.968;2024-03-08T13:12:46;17.40;17.40
939;DHT22;456;53.584;9.968;2024-03-08T13:15:12;17.40;17.60
939;DHT22;456;53.584;9.968;2024-03-08T13:17:48;17.40;17.40
939;DHT22;456;53.584;9.968;2024-03-08T13:20:14;17.40;17.40
939;DHT22;456;53.584;9.968;2024-03-08T13:22:45;17.30;17.40
939;DHT22;456;53.584;9.968;2024-03-08T13:25:11;17.30;17.40
939;DHT22;456;53.584;9.968;2024-03-08T13:27:40;17.30;17.40
939;DHT22;456;53.584;9.968;2024-03-08T13:30:08;17.30;17.40
939;DHT22;456;53.584;9.968;2024-03-08T13:32:39;17.30;17.30
939;DHT22;456;53.584;9.968;2024-03-08T13:35:05;17.30;17.30
939;DHT22;456;53.584;9.968;2024-03-08T13:37:38;17.30;17.30
939;DHT22;456;53.584;9.968;2024-03-08T13:40:04;17.30;17.30
939;DHT22;456;53.584;9.968;2024-03-08T13:42:31;17.30;17.30
939;DHT22;456;53.584;9.968;2024-03-08T13:44:56;17.30;17.30
939;DHT22;456;53.584;9.968;2024-03-08T13:47:22;17.20;17.30
939;DHT22;456;53.584;9.968;2024-03-08T13:49:49;17.20;17.30
939;DHT22;456;53.584;9.968;2024-03-08T13:52:16;17.20;17.80
939;DHT22;456;53.584;9.968;2024-03-08T13:54:42;17.20;17.30
939;DHT22;456;53.584;9.968;2024-03-08T13:57:07;17.20;17.40
939;DHT22;456;53.584;9.968;2024-03-08T13:59:36;17.20;17.40
939;DHT22;456;53.584;9.968;2024-03-08T14:02:03;17.30;17.50
939;DHT22;456;53.584;9.968;2024-03-08T14:04:29;17.30;17.30
939;DHT22;456;53.584;9.968;2024-03-08T14:06:55;17.30;17.30
939;DHT22;456;53.584;9.968;2024-03-08T14:09:25;17.30;17.30
939;DHT22;456;53.584;9.968;2024-03-08T14:11:51;17.40;17.50
939;DHT22;456;53.584;9.968;2024-03-08T14:14:21;17.40;17.50
939;DHT22;456;53.584;9.968;2024-03-08T14:16:49;17.50;17.60
939;DHT22;456;53.584;9.968;2024-03-08T14:19:14;17.50;17.60
939;DHT22;456;53.584;9.968;2024-03-08T14:21:40;17.60;17.70
939;DHT22;456;53.584;9.968;2024-03-08T14:24:07;17.60;17.60
939;DHT22;456;53.584;9.968;2024-03-08T14:26:33;17.70;17.70
939;DHT22;456;53.584;9.968;2024-03-08T14:28:59;17.70;17.70
939;DHT22;456;53.584;9.968;2024-03-08T14:31:25;17.70;17.60
939;DHT22;456;53.584;9.968;2024-03-08T14:33:51;17.80;17.70
939;DHT22;456;53.584;9.968;2024-03-08T14:36:18;17.80;17.70
939;DHT22;456;53.584;9.968;2024-03-08T14:38:45;17.80;17.70
939;DHT22;456;53.584;9.968;2024-03-08T14:41:13;17.80;17.80
939;DHT22;456;53.584;9.968;2024-03-08T14:43:42;17.80;17.80
939;DHT22;456;53.584;9.968;2024-03-08T14:46:13;17.80;17.80
939;DHT22;456;53.584;9.968;2024-03-08T14:48:45;17.80;17.80
939;DHT22;456;53.584;9.968;2024-03-08T14:51:11;17.80;17.80
939;DHT22;456;53.584;9.968;2024-03-08T14:53:40;17.80;17.80
939;DHT22;456;53.584;9.968;2024-03-08T14:56:08;17.80;17.90
939;DHT22;456;53.584;9.968;2024-03-08T14:58:34;17.80;17.90
939;DHT22;456;53.584;9.968;2024-03-08T15:01:00;17.80;17.90
939;DHT22;456;53.584;9.968;2024-03-08T15:03:27;17.80;18.00
939;DHT22;456;53.584;9.968;2024-03-08T15:05:54;17.80;18.00
939;DHT22;456;53.584;9.968;2024-03-08T15:08:21;17.80;18.00
939;DHT22;456;53.584;9.968;2024-03-08T15:10:49;17.80;18.00
939;DHT22;456;53.584;9.968;2024-03-08T15:13:20;17.80;18.00
939;DHT22;456;53.584;9.968;2024-03-08T15:15:53;17.80;18.00
939;DHT22;456;53.584;9.968;2024-03-08T15:18:24;17.80;18.00
939;DHT22;456;53.584;9.968;2024-03-08T15:21:03;17.80;18.00
939;DHT22;456;53.584;9.968;2024-03-08T15:23:33;17.80;18.10
939;DHT22;456;53.584;9.968;2024-03-08T15:25:58;17.80;18.00
939;DHT22;456;53.584;9.968;2024-03-08T15:28:24;17.80;18.10
939;DHT22;456;53.584;9.968;2024-03-08T15:30:59;17.70;18.10
939;DHT22;456;53.584;9.968;2024-03-08T15:33:30;17.70;18.10
939;DHT22;456;53.584;9.968;2024-03-08T15:35:56;17.70;18.10
939;DHT22;456;53.584;9.968;2024-03-08T15:38:29;17.70;18.10
939;DHT22;456;53.584;9.968;2024-03-08T15:40:55;17.70;18.10
939;DHT22;456;53.584;9.968;2024-03-08T15:43:21;17.70;18.10
939;DHT22;456;53.584;9.968;2024-03-08T15:45:47;17.70;18.10
939;DHT22;456;53.584;9.968;2024-03-08T15:48:13;17.80;18.10
939;DHT22;456;53.584;9.968;2024-03-08T15:50:40;17.70;18.00
939;DHT22;456;53.584;9.968;2024-03-08T15:53:05;17.70;18.10
939;DHT22;456;53.584;9.968;2024-03-08T15:55:31;17.70;18.10
939;DHT22;456;53.584;9.968;2024-03-08T15:57:57;17.80;18.10
939;DHT22;456;53.584;9.968;2024-03-08T16:00:26;17.70;18.10
939;DHT22;456;53.584;9.968;2024-03-08T16:03:23;17.80;18.10
939;DHT22;456;53.584;9.968;2024-03-08T16:05:49;17.80;18.10
939;DHT22;456;53.584;9.968;2024-03-08T16:08:16;17.80;18.10
939;DHT22;456;53.584;9.968;2024-03-08T16:11:01;17.80;18.10
939;DHT22;456;53.584;9.968;2024-03-08T16:13:33;17.80;18.20
939;DHT22;456;53.584;9.968;2024-03-08T16:15:59;17.80;18.20
939;DHT22;456;53.584;9.968;2024-03-08T16:18:24;17.80;18.20
939;DHT22;456;53.584;9.968;2024-03-08T16:20:54;17.80;18.20
939;DHT22;456;53.584;9.968;2024-03-08T16:23:20;17.80;18.10
939;DHT22;456;53.584;9.968;2024-03-08T16:25:46;17.80;18.10
939;DHT22;456;53.584;9.968;2024-03-08T16:28:13;17.80;18.10
939;DHT22;456;53.584;9.968;2024-03-08T16:30:40;17.80;18.20
939;DHT22;456;53.584;9.968;2024-03-08T16:33:08;17.80;18.20
939;DHT22;456;53.584;9.968;2024-03-08T16:35:33;17.80;18.20
939;DHT22;456;53.584;9.968;2024-03-08T16:38:01;17.80;18.20
939;DHT22;456;53.584;9.968;2024-03-08T16:40:27;17.80;18.20
939;DHT22;456;53.584;9.968;2024-03-08T16:42:53;17.80;18.20